Pagrindinis puslapis
METAR-TAF:

METAR-TAF

Oro uostai :

Lakselv, Norvegija

platuma: 70-04N, ilguma: 024-59E, Aukštis: 0 m

Dabartinis oras

Ataskaita buvo paskelbta 12 minutes, ne 09:50 UTC
Vėjas 4 kt iš Rytų/Pietryčių, svyruoja nuo Rytų/Šiaurės Rytų ir Pietų/Pietryčių
Temperatūra 0°C
Drėgmė 64%
Slėgis 1006 hPa
Matomumas 10 km arba daugiau
Išsisklaidę debesys ne aukštis 3500 ft
Su prošvaistėmis ne aukštis 7000 ft

METAR: ENNA 270950Z 12004KT 070V160 9999 SCT035 BKN070 00/M06 Q1006 RMK WIND 1800FT 12011KT

Laikas: 12:02 (10:02 UTC)

Prognozė

Prognozė galioja nuo 27 metu 06 UTC su 28 metu 06 UTC
Vėjas 9 kt iš Rytų/Šiaurės Rytų
Matomumas 10 km arba daugiau
Mažai debesys ne aukštis 2000 ft
Su prošvaistėmis ne aukštis 3500 ft
Laikinai
nuo 27 metu 06 UTC su 27 metu 17 UTC
Vėjas 15 kt iš Rytų su gūsio iki 25 kt
Tapsmas
nuo 27 metu 15 UTC su 27 metu 18 UTC
Vėjas 12 kt iš Pietų
Laikinai
nuo 28 metu 03 UTC su 28 metu 06 UTC
Vėjas 25 kt iš Pietų

TAF: ENNA 2706/2806 07009KT 9999 FEW020 BKN035 TEMPO 2706/2717 08015G25KT BECMG 2715/2718 17012KT TEMPO 2803/2806 17025KT

Orai ataskaitas ir orų prognozės (METAR, TAF).

turimą stotys yra geltonos ir raudonos taškus žemėlapyje.

Perkelti pele per norėdami pamatyti stoties vardą.

Tada spustelėkite, norėdami matyti oro stebėjimo ir prognozės.

Norėdami pakeisti žemėlapį: spustelėkite ant žalios mygtukų su juodo kryžiaus žemyn,; žalią mygtuką su brūkšneliu, jei norite nutolinti; arba žalių rodyklių gretimoms žemėlapius.


METAR-TAF: